createdAt,value
2023-08-17T00:00:57.731Z,25.26
2023-08-17T00:03:37.287Z,25.23
2023-08-17T00:06:05.629Z,25.21
2023-08-17T00:08:34.029Z,25.19
2023-08-17T00:11:02.341Z,25.15
2023-08-17T00:13:30.667Z,25.12
2023-08-17T00:15:59.149Z,25.06
2023-08-17T00:18:27.683Z,24.99
2023-08-17T00:20:55.933Z,24.89
2023-08-17T00:23:24.392Z,24.70
2023-08-17T00:25:52.848Z,24.65
2023-08-17T00:28:21.180Z,24.62
2023-08-17T00:30:49.536Z,24.58
2023-08-17T00:33:17.932Z,24.61
2023-08-17T00:35:47.151Z,24.62
2023-08-17T00:38:15.460Z,24.63
2023-08-17T00:40:44.891Z,24.60
2023-08-17T00:43:13.292Z,24.64
2023-08-17T00:45:42.454Z,24.61
2023-08-17T00:48:12.967Z,24.64
2023-08-17T00:50:42.170Z,24.62
2023-08-17T00:53:14.791Z,24.60
2023-08-17T00:55:44.123Z,24.60
2023-08-17T00:58:13.085Z,24.60
2023-08-17T01:00:42.803Z,24.56
2023-08-17T01:03:11.793Z,24.55
2023-08-17T01:05:40.974Z,24.56
2023-08-17T01:08:09.403Z,24.55
2023-08-17T01:10:49.641Z,24.52
2023-08-17T01:13:24.493Z,24.46
2023-08-17T01:15:57.836Z,24.38
2023-08-17T01:18:33.296Z,24.32
2023-08-17T01:21:03.608Z,24.29
2023-08-17T01:23:32.169Z,24.27
2023-08-17T01:26:00.540Z,24.26
2023-08-17T01:28:29.144Z,24.24
2023-08-17T01:31:09.771Z,24.24
2023-08-17T01:33:43.388Z,24.22
2023-08-17T01:36:21.917Z,24.21
2023-08-17T01:38:52.659Z,24.20
2023-08-17T01:41:22.364Z,24.18
2023-08-17T01:43:51.288Z,24.15
2023-08-17T01:46:19.780Z,24.14
2023-08-17T01:48:49.704Z,24.10
2023-08-17T01:51:22.610Z,24.00
2023-08-17T01:53:51.105Z,23.93
2023-08-17T01:56:19.377Z,23.95
2023-08-17T01:58:48.048Z,23.98
2023-08-17T02:01:16.408Z,24.02
2023-08-17T02:03:44.740Z,24.05
2023-08-17T02:06:13.045Z,24.08
2023-08-17T02:08:42.552Z,24.12
2023-08-17T02:11:11.503Z,24.13
2023-08-17T02:13:40.688Z,24.12
2023-08-17T02:16:09.044Z,24.10
2023-08-17T02:18:37.400Z,24.10
2023-08-17T02:21:05.676Z,24.02
2023-08-17T02:23:33.946Z,23.93
2023-08-17T02:26:02.298Z,23.86
2023-08-17T02:28:30.702Z,23.72
2023-08-17T02:31:00.117Z,23.63
2023-08-17T02:33:30.253Z,23.59
2023-08-17T02:35:58.658Z,23.55
2023-08-17T02:38:27.045Z,23.53
2023-08-17T02:40:55.435Z,23.54
2023-08-17T02:43:23.988Z,23.57
2023-08-17T02:45:53.142Z,23.59
2023-08-17T02:48:22.461Z,23.60
2023-08-17T02:50:50.729Z,23.52
2023-08-17T02:53:19.105Z,23.49
2023-08-17T02:55:48.565Z,23.48
2023-08-17T02:58:17.058Z,23.51
2023-08-17T03:00:45.348Z,23.53
2023-08-17T03:03:13.843Z,23.54
2023-08-17T03:05:42.204Z,23.59
2023-08-17T03:08:10.477Z,23.54
2023-08-17T03:10:39.027Z,23.39
2023-08-17T03:13:07.336Z,23.25
2023-08-17T03:15:35.755Z,23.18
2023-08-17T03:18:04.336Z,23.08
2023-08-17T03:20:33.940Z,22.95
2023-08-17T03:23:02.374Z,22.92
2023-08-17T03:25:30.672Z,22.75
2023-08-17T03:27:59.042Z,22.61
2023-08-17T03:30:27.671Z,22.59
2023-08-17T03:32:56.373Z,22.64
2023-08-17T03:35:24.660Z,22.70
2023-08-17T03:37:54.448Z,22.70
2023-08-17T03:40:23.275Z,22.72
2023-08-17T03:42:51.578Z,22.76
2023-08-17T03:45:20.172Z,22.77
2023-08-17T03:47:53.088Z,22.74
2023-08-17T03:50:21.349Z,22.72
2023-08-17T03:52:49.637Z,22.70
2023-08-17T03:55:19.029Z,22.68
2023-08-17T03:57:47.254Z,22.61
2023-08-17T04:00:15.704Z,22.47
2023-08-17T04:02:44.452Z,22.52
2023-08-17T04:05:16.988Z,22.53
2023-08-17T04:07:45.324Z,22.56
2023-08-17T04:10:13.567Z,22.61
2023-08-17T04:12:41.879Z,22.68
2023-08-17T04:15:10.337Z,22.78
2023-08-17T04:17:38.590Z,22.86
2023-08-17T04:20:08.261Z,22.95
2023-08-17T04:22:36.601Z,23.06
2023-08-17T04:25:05.253Z,23.15
2023-08-17T04:27:33.583Z,23.17
2023-08-17T04:30:02.717Z,23.14
2023-08-17T04:32:33.288Z,23.16
2023-08-17T04:35:01.703Z,23.20
2023-08-17T04:37:30.029Z,23.25
2023-08-17T04:39:58.470Z,23.29
2023-08-17T04:42:27.054Z,23.35
2023-08-17T04:44:55.382Z,23.39
2023-08-17T04:47:24.272Z,23.41
2023-08-17T04:49:52.877Z,23.43
2023-08-17T04:52:21.219Z,23.45
2023-08-17T04:54:49.574Z,23.48
2023-08-17T04:57:20.285Z,23.54
2023-08-17T04:59:48.814Z,23.54
2023-08-17T05:02:17.742Z,23.56
2023-08-17T05:04:47.938Z,23.61
2023-08-17T05:07:16.885Z,23.63
2023-08-17T05:09:45.411Z,23.72
2023-08-17T05:12:14.669Z,23.78
2023-08-17T05:14:43.051Z,23.85
2023-08-17T05:17:11.377Z,23.80
2023-08-17T05:19:40.924Z,23.72
2023-08-17T05:22:14.730Z,23.68
2023-08-17T05:24:43.216Z,23.65
2023-08-17T05:27:11.481Z,23.57
2023-08-17T05:29:39.881Z,23.56
2023-08-17T05:32:08.489Z,23.57
2023-08-17T05:34:36.820Z,23.60
2023-08-17T05:37:06.043Z,23.63
2023-08-17T05:39:36.461Z,23.78
2023-08-17T05:42:05.256Z,23.89
2023-08-17T05:44:33.606Z,24.01
2023-08-17T05:47:01.914Z,24.13
2023-08-17T05:49:30.320Z,24.25
2023-08-17T05:51:58.707Z,24.36
2023-08-17T05:54:27.019Z,24.47
2023-08-17T05:56:55.386Z,24.56
2023-08-17T05:59:23.711Z,24.59
2023-08-17T06:01:52.054Z,24.57
2023-08-17T06:04:28.568Z,24.60
2023-08-17T06:06:58.839Z,24.68
2023-08-17T06:09:27.138Z,24.77
2023-08-17T06:11:55.493Z,24.85
2023-08-17T06:14:23.803Z,24.97
2023-08-17T06:16:52.166Z,25.09
2023-08-17T06:19:20.485Z,25.18
2023-08-17T06:21:48.792Z,25.28
2023-08-17T06:24:17.133Z,25.32
2023-08-17T06:26:46.954Z,25.41
2023-08-17T06:29:15.376Z,25.51
2023-08-17T06:31:43.651Z,25.57
2023-08-17T06:34:12.061Z,25.62
2023-08-17T06:36:41.058Z,25.64
2023-08-17T06:39:10.450Z,25.74
2023-08-17T06:41:38.760Z,25.83
2023-08-17T06:44:08.009Z,25.91
2023-08-17T06:46:36.323Z,25.99
2023-08-17T06:49:04.972Z,26.10
2023-08-17T06:51:33.368Z,26.20
2023-08-17T06:54:01.572Z,26.25
2023-08-17T06:56:29.893Z,26.25
2023-08-17T06:58:58.133Z,26.30
2023-08-17T07:01:26.601Z,26.30
2023-08-17T07:03:54.951Z,26.26
2023-08-17T07:06:23.241Z,26.25
2023-08-17T07:08:51.583Z,26.32
2023-08-17T07:11:20.424Z,26.33
2023-08-17T07:13:48.793Z,26.35
2023-08-17T07:16:17.293Z,26.35
2023-08-17T07:18:45.758Z,26.44
2023-08-17T07:21:14.013Z,26.49
2023-08-17T07:23:45.908Z,26.54
2023-08-17T07:26:14.277Z,26.61
2023-08-17T07:28:42.546Z,26.71
2023-08-17T07:31:10.853Z,26.81
2023-08-17T07:33:40.704Z,26.89
2023-08-17T07:36:09.142Z,26.93
2023-08-17T07:38:37.400Z,26.98
2023-08-17T07:41:05.690Z,27.04
2023-08-17T07:43:34.025Z,27.10
2023-08-17T07:46:02.485Z,27.21
2023-08-17T07:48:34.865Z,27.26
2023-08-17T07:51:03.292Z,27.28
2023-08-17T07:53:31.819Z,27.28
2023-08-17T07:56:00.453Z,27.28
2023-08-17T07:58:28.875Z,27.31
2023-08-17T08:00:57.262Z,27.31
2023-08-17T08:03:25.657Z,27.28
2023-08-17T08:05:54.020Z,27.29
2023-08-17T08:08:22.339Z,27.37
2023-08-17T08:10:50.672Z,27.40
2023-08-17T08:13:18.939Z,27.46
2023-08-17T08:15:47.559Z,27.49
2023-08-17T08:18:15.879Z,27.49
2023-08-17T08:20:44.335Z,27.49
2023-08-17T08:23:12.850Z,27.54
2023-08-17T08:25:41.280Z,27.49
2023-08-17T08:28:10.017Z,27.53
2023-08-17T08:30:38.318Z,27.57
2023-08-17T08:33:06.742Z,27.62
2023-08-17T08:35:35.193Z,27.59
2023-08-17T08:38:04.057Z,27.73
2023-08-17T08:45:44.090Z,27.81
2023-08-17T08:53:02.824Z,27.95
2023-08-17T08:55:35.180Z,28.05
2023-08-17T08:58:06.617Z,28.09
2023-08-17T09:00:35.728Z,28.12
2023-08-17T09:03:05.625Z,28.19
2023-08-17T09:05:35.813Z,28.26
2023-08-17T09:08:05.221Z,28.25
2023-08-17T09:10:38.870Z,28.34
2023-08-17T09:13:07.590Z,28.45
2023-08-17T09:15:36.405Z,28.55
2023-08-17T09:18:07.211Z,28.52
2023-08-17T09:20:48.262Z,28.61
2023-08-17T09:23:21.104Z,28.74
2023-08-17T09:25:53.265Z,28.76
2023-08-17T09:28:21.786Z,28.77
2023-08-17T09:30:54.251Z,28.83
2023-08-17T09:33:24.421Z,28.95
2023-08-17T09:35:58.563Z,29.01
2023-08-17T09:38:28.709Z,29.07
2023-08-17T09:40:59.736Z,29.14
2023-08-17T09:43:34.249Z,29.25
2023-08-17T09:46:05.988Z,29.29
2023-08-17T09:48:34.397Z,29.34
2023-08-17T09:51:03.679Z,29.37
2023-08-17T09:53:38.590Z,29.33
2023-08-17T09:58:43.623Z,29.51
2023-08-17T10:01:12.409Z,29.56
2023-08-17T10:03:43.577Z,29.61
2023-08-17T10:06:14.454Z,29.65
2023-08-17T10:08:55.311Z,29.71
2023-08-17T10:11:24.460Z,29.80
2023-08-17T10:13:57.120Z,29.86
2023-08-17T10:16:34.333Z,29.95
2023-08-17T10:19:05.917Z,30.11
2023-08-17T10:21:40.908Z,30.14
2023-08-17T10:24:09.213Z,30.12
2023-08-17T10:26:38.129Z,30.18
2023-08-17T10:31:40.663Z,30.34
2023-08-17T10:34:09.244Z,30.40
2023-08-17T10:36:38.107Z,30.40
2023-08-17T10:39:25.125Z,30.45
2023-08-17T10:41:56.497Z,30.55
2023-08-17T10:44:48.717Z,30.64
2023-08-17T10:47:24.070Z,30.77
2023-08-17T10:49:56.516Z,30.79
2023-08-17T10:52:36.749Z,30.81
2023-08-17T10:55:12.008Z,30.84
2023-08-17T10:57:44.021Z,30.94
2023-08-17T11:00:28.156Z,30.95
2023-08-17T11:03:01.520Z,30.93
2023-08-17T11:05:43.879Z,31.01
2023-08-17T11:08:31.455Z,31.00
2023-08-17T11:11:07.657Z,31.11
2023-08-17T11:13:37.861Z,31.24
2023-08-17T11:16:07.620Z,31.43
2023-08-17T11:18:36.157Z,31.49
2023-08-17T11:21:05.992Z,31.47
2023-08-17T11:23:35.750Z,31.45
2023-08-17T11:26:04.631Z,31.57
2023-08-17T11:28:42.751Z,31.61
2023-08-17T11:31:14.570Z,31.72
2023-08-17T11:33:42.944Z,31.83
2023-08-17T11:36:11.490Z,31.96
2023-08-17T11:38:44.013Z,32.06
2023-08-17T11:43:45.343Z,31.91
2023-08-17T11:46:13.887Z,31.88
2023-08-17T11:48:42.314Z,32.06
2023-08-17T11:51:10.665Z,32.24
2023-08-17T11:53:40.951Z,32.31
2023-08-17T11:56:11.507Z,32.38
2023-08-17T11:58:49.346Z,32.41
2023-08-17T12:01:18.519Z,32.59
2023-08-17T12:03:47.257Z,32.72
2023-08-17T12:06:17.877Z,32.78
2023-08-17T12:08:48.291Z,32.85
2023-08-17T12:11:19.479Z,32.83
2023-08-17T12:13:55.121Z,32.88
2023-08-17T12:16:24.630Z,33.03
2023-08-17T12:18:53.877Z,33.10
2023-08-17T12:21:23.950Z,33.22
2023-08-17T12:23:53.082Z,33.46
2023-08-17T12:26:22.547Z,33.62
2023-08-17T12:28:51.166Z,33.86
2023-08-17T12:31:25.175Z,33.91
2023-08-17T12:33:54.047Z,33.88
2023-08-17T12:36:23.084Z,33.98
2023-08-17T12:38:51.979Z,34.19
2023-08-17T12:41:20.431Z,34.42
2023-08-17T12:43:48.845Z,34.55
2023-08-17T12:46:17.370Z,34.66
2023-08-17T12:48:45.735Z,34.52
2023-08-17T12:51:13.975Z,34.47
2023-08-17T12:53:43.010Z,34.65
2023-08-17T12:56:11.429Z,34.77
2023-08-17T12:58:39.706Z,34.78
2023-08-17T13:01:08.222Z,34.94
2023-08-17T13:03:36.886Z,35.13
2023-08-17T13:06:05.606Z,35.13
2023-08-17T13:08:34.001Z,35.00
2023-08-17T13:11:02.372Z,35.20
2023-08-17T13:13:30.763Z,35.41
2023-08-17T13:15:59.160Z,35.65
2023-08-17T13:18:27.496Z,35.69
2023-08-17T13:20:56.113Z,35.94
2023-08-17T13:23:24.391Z,36.19
2023-08-17T13:25:52.773Z,36.38
2023-08-17T13:28:21.026Z,36.45
2023-08-17T13:30:49.566Z,36.66
2023-08-17T13:33:18.207Z,37.05
2023-08-17T13:35:46.600Z,37.32
2023-08-17T13:38:15.058Z,37.36
2023-08-17T13:40:44.438Z,37.06
2023-08-17T13:43:15.582Z,36.99
2023-08-17T13:45:43.945Z,37.12
2023-08-17T13:48:12.310Z,37.28
2023-08-17T13:50:41.146Z,37.49
2023-08-17T13:53:09.426Z,37.77
2023-08-17T13:55:37.745Z,37.76
2023-08-17T13:58:06.241Z,37.74
2023-08-17T14:00:34.560Z,37.57
2023-08-17T14:03:03.487Z,37.49
2023-08-17T14:05:32.111Z,37.21
2023-08-17T14:08:00.554Z,37.12
2023-08-17T14:10:38.476Z,37.05
2023-08-17T14:13:08.703Z,36.96
2023-08-17T14:15:37.040Z,36.92
2023-08-17T14:18:05.871Z,36.79
2023-08-17T14:20:34.228Z,36.68
2023-08-17T14:23:02.455Z,36.67
2023-08-17T14:25:30.781Z,36.70
2023-08-17T14:28:00.010Z,36.91
2023-08-17T14:30:28.326Z,36.73
2023-08-17T14:33:00.484Z,36.58
2023-08-17T14:35:29.405Z,36.36
2023-08-17T14:37:59.420Z,36.37
2023-08-17T14:40:28.507Z,36.12
2023-08-17T14:42:57.144Z,35.86
2023-08-17T14:45:25.464Z,35.50
2023-08-17T14:47:53.886Z,35.25
2023-08-17T14:50:22.515Z,35.23
2023-08-17T14:52:57.081Z,35.12
2023-08-17T14:55:25.845Z,34.92
2023-08-17T14:57:54.126Z,34.72
2023-08-17T15:00:23.769Z,34.42
2023-08-17T15:02:53.181Z,34.11
2023-08-17T15:05:21.627Z,33.88
2023-08-17T15:07:49.969Z,33.80
2023-08-17T15:10:18.475Z,33.61
2023-08-17T15:12:47.239Z,33.39
2023-08-17T15:15:20.609Z,33.27
2023-08-17T15:17:51.095Z,33.19
2023-08-17T15:20:20.737Z,33.06
2023-08-17T15:22:49.143Z,32.84
2023-08-17T15:25:17.961Z,32.78
2023-08-17T15:27:47.437Z,32.63
2023-08-17T15:30:15.796Z,32.58
2023-08-17T15:32:44.190Z,32.52
2023-08-17T15:35:15.507Z,32.53
2023-08-17T15:37:43.779Z,32.55
2023-08-17T15:40:12.947Z,32.60
2023-08-17T15:42:41.283Z,32.58
2023-08-17T15:45:09.910Z,32.47
2023-08-17T15:47:38.558Z,32.37
2023-08-17T15:50:07.167Z,32.30
2023-08-17T15:52:35.480Z,32.22
2023-08-17T15:55:04.112Z,32.20
2023-08-17T15:57:32.432Z,32.13
2023-08-17T16:00:02.511Z,32.18
2023-08-17T16:02:37.326Z,32.03
2023-08-17T16:05:05.971Z,31.96
2023-08-17T16:07:34.830Z,31.88
2023-08-17T16:10:03.330Z,31.79
2023-08-17T16:12:31.676Z,31.82
2023-08-17T16:14:59.973Z,31.75
2023-08-17T16:17:28.476Z,31.70
2023-08-17T16:19:56.956Z,31.68
2023-08-17T16:22:25.251Z,31.66
2023-08-17T16:24:53.545Z,31.64
2023-08-17T16:27:21.921Z,31.59
2023-08-17T16:32:24.066Z,31.51
2023-08-17T16:34:53.919Z,31.43
2023-08-17T16:37:22.740Z,31.35
2023-08-17T16:39:51.360Z,31.25
2023-08-17T16:42:20.054Z,31.19
2023-08-17T16:44:48.613Z,31.16
2023-08-17T16:47:19.765Z,31.07
2023-08-17T16:49:48.705Z,31.03
2023-08-17T16:52:17.425Z,30.99
2023-08-17T16:54:48.210Z,30.92
2023-08-17T16:57:16.822Z,30.81
2023-08-17T16:59:45.339Z,30.76
2023-08-17T17:02:14.935Z,30.71
2023-08-17T17:04:46.125Z,30.66
2023-08-17T17:07:15.465Z,30.60
2023-08-17T17:09:45.591Z,30.55
2023-08-17T17:12:14.064Z,30.50
2023-08-17T17:14:42.425Z,30.42
2023-08-17T17:17:10.721Z,30.31
2023-08-17T17:19:38.961Z,30.26
2023-08-17T17:22:07.226Z,30.20
2023-08-17T17:24:35.558Z,30.13
2023-08-17T17:27:03.993Z,30.06
2023-08-17T17:29:32.235Z,29.98
2023-08-17T17:32:00.693Z,29.86
2023-08-17T17:34:28.994Z,29.80
2023-08-17T17:36:57.450Z,29.74
2023-08-17T17:39:26.246Z,29.63
2023-08-17T17:41:55.306Z,29.54
2023-08-17T17:44:25.225Z,29.50
2023-08-17T17:46:53.621Z,29.42
2023-08-17T17:49:22.105Z,29.35
2023-08-17T17:51:51.053Z,29.25
2023-08-17T17:54:19.381Z,29.24
2023-08-17T17:56:47.745Z,29.17
2023-08-17T17:59:16.016Z,29.15
2023-08-17T18:01:44.348Z,29.12
2023-08-17T18:04:12.831Z,29.08
2023-08-17T18:06:41.204Z,29.05
2023-08-17T18:09:10.190Z,28.96
2023-08-17T18:11:38.581Z,28.89
2023-08-17T18:14:07.704Z,28.81
2023-08-17T18:16:36.079Z,28.75
2023-08-17T18:19:04.649Z,28.72
2023-08-17T18:21:33.000Z,28.65
2023-08-17T18:24:01.522Z,28.59
2023-08-17T18:26:29.846Z,28.55
2023-08-17T18:28:58.194Z,28.52
2023-08-17T18:31:26.505Z,28.51
2023-08-17T18:33:54.793Z,28.44
2023-08-17T18:36:23.237Z,28.38
2023-08-17T18:38:51.546Z,28.38
2023-08-17T18:41:19.886Z,28.34
2023-08-17T18:43:48.230Z,28.32
2023-08-17T18:46:17.260Z,28.24
2023-08-17T18:48:45.652Z,28.15
2023-08-17T18:51:14.046Z,28.07
2023-08-17T18:53:43.256Z,27.98
2023-08-17T18:56:11.777Z,27.95
2023-08-17T18:58:40.431Z,27.90
2023-08-17T19:01:08.705Z,27.79
2023-08-17T19:03:37.992Z,27.78
2023-08-17T19:06:06.519Z,27.74
2023-08-17T19:08:34.882Z,27.69
2023-08-17T19:11:03.193Z,27.62
2023-08-17T19:13:31.689Z,27.58
2023-08-17T19:16:00.083Z,27.54
2023-08-17T19:18:28.578Z,27.53
2023-08-17T19:20:56.843Z,27.54
2023-08-17T19:23:25.121Z,27.54
2023-08-17T19:25:53.482Z,27.53
2023-08-17T19:28:21.841Z,27.47
2023-08-17T19:30:50.170Z,27.44
2023-08-17T19:33:18.490Z,27.39
2023-08-17T19:35:47.029Z,27.37
2023-08-17T19:38:15.412Z,27.35
2023-08-17T19:40:46.006Z,27.31
2023-08-17T19:43:14.361Z,27.28
2023-08-17T19:45:42.956Z,27.26
2023-08-17T19:48:11.349Z,27.23
2023-08-17T19:50:39.731Z,27.19
2023-08-17T19:53:08.112Z,27.16
2023-08-17T19:55:36.465Z,27.09
2023-08-17T19:58:05.261Z,27.04
2023-08-17T20:00:33.566Z,27.00
2023-08-17T20:03:01.900Z,26.93
2023-08-17T20:05:30.410Z,26.91
2023-08-17T20:07:58.745Z,26.92
2023-08-17T20:10:27.162Z,26.87
2023-08-17T20:12:55.640Z,26.92
2023-08-17T20:15:27.011Z,26.94
2023-08-17T20:17:55.381Z,26.92
2023-08-17T20:20:23.755Z,26.90
2023-08-17T20:22:52.338Z,26.86
2023-08-17T20:25:21.324Z,26.85
2023-08-17T20:27:50.533Z,26.81
2023-08-17T20:30:18.819Z,26.74
2023-08-17T20:32:47.111Z,26.64
2023-08-17T20:35:15.421Z,26.57
2023-08-17T20:37:43.717Z,26.48
2023-08-17T20:40:12.319Z,26.47
2023-08-17T20:42:40.565Z,26.47
2023-08-17T20:45:09.560Z,26.44
2023-08-17T20:47:37.874Z,26.44
2023-08-17T20:50:08.771Z,26.43
2023-08-17T20:52:37.149Z,26.36
2023-08-17T20:55:05.696Z,26.36
2023-08-17T20:57:34.173Z,26.34
2023-08-17T21:00:04.535Z,26.31
2023-08-17T21:02:34.324Z,26.29
2023-08-17T21:05:02.680Z,26.25
2023-08-17T21:07:31.543Z,26.22
2023-08-17T21:10:00.435Z,26.19
2023-08-17T21:12:30.564Z,26.15
2023-08-17T21:14:59.175Z,26.12
2023-08-17T21:17:28.738Z,26.08
2023-08-17T21:19:57.411Z,26.00
2023-08-17T21:22:27.435Z,25.93
2023-08-17T21:24:55.748Z,25.89
2023-08-17T21:27:24.167Z,25.89
2023-08-17T21:29:52.624Z,25.85
2023-08-17T21:32:20.932Z,25.76
2023-08-17T21:34:49.278Z,25.75
2023-08-17T21:37:28.327Z,25.72
2023-08-17T21:39:56.988Z,25.69
2023-08-17T21:42:25.380Z,25.64
2023-08-17T21:44:54.627Z,25.65
2023-08-17T21:47:23.217Z,25.62
2023-08-17T21:49:51.713Z,25.58
2023-08-17T21:52:20.082Z,25.55
2023-08-17T21:54:51.717Z,25.52
2023-08-17T21:57:20.060Z,25.52
2023-08-17T21:59:48.452Z,25.53
2023-08-17T22:02:16.703Z,25.56
2023-08-17T22:04:45.133Z,25.56
2023-08-17T22:07:13.452Z,25.53
2023-08-17T22:09:41.741Z,25.49
2023-08-17T22:12:10.065Z,25.51
2023-08-17T22:14:38.300Z,25.50
2023-08-17T22:17:06.612Z,25.48
2023-08-17T22:19:35.024Z,25.46
2023-08-17T22:22:05.792Z,25.46
2023-08-17T22:24:45.266Z,25.48
2023-08-17T22:27:19.289Z,25.47
2023-08-17T22:29:47.617Z,25.45
2023-08-17T22:32:15.988Z,25.43
2023-08-17T22:34:44.424Z,25.45
2023-08-17T22:37:13.942Z,25.44
2023-08-17T22:39:43.046Z,25.42
2023-08-17T22:42:11.344Z,25.42
2023-08-17T22:44:39.679Z,25.40
2023-08-17T22:47:08.008Z,25.38
2023-08-17T22:49:37.559Z,25.35
2023-08-17T22:52:06.068Z,25.31
2023-08-17T22:54:34.407Z,25.29
2023-08-17T22:57:04.178Z,25.30
2023-08-17T22:59:32.589Z,25.30
2023-08-17T23:02:02.217Z,25.31
2023-08-17T23:04:30.602Z,25.37
2023-08-17T23:06:59.009Z,25.36
2023-08-17T23:09:28.342Z,25.28
2023-08-17T23:11:56.578Z,25.24
2023-08-17T23:14:24.808Z,25.24
2023-08-17T23:16:53.108Z,25.24
2023-08-17T23:19:21.406Z,25.22
2023-08-17T23:21:49.798Z,25.27
2023-08-17T23:24:18.184Z,25.28
2023-08-17T23:26:46.589Z,25.30
2023-08-17T23:29:14.851Z,25.31
2023-08-17T23:45:55.756Z,25.56
2023-08-17T23:48:24.257Z,25.57
2023-08-17T23:50:52.672Z,25.53
2023-08-17T23:53:21.147Z,25.50
2023-08-17T23:55:50.080Z,25.47
2023-08-17T23:58:19.045Z,25.43
